createdAt,value
2018-04-16T00:01:08.806Z,16.67
2018-04-16T00:03:37.168Z,16.70
2018-04-16T00:06:05.536Z,16.73
2018-04-16T00:08:33.863Z,16.75
2018-04-16T00:11:02.225Z,16.73
2018-04-16T00:13:31.314Z,16.71
2018-04-16T00:16:00.495Z,16.73
2018-04-16T00:18:28.811Z,16.70
2018-04-16T00:20:57.182Z,16.66
2018-04-16T00:23:26.738Z,16.65
2018-04-16T00:25:55.171Z,16.65
2018-04-16T00:28:23.460Z,16.68
2018-04-16T00:30:51.810Z,16.67
2018-04-16T00:33:26.371Z,16.67
2018-04-16T00:36:00.194Z,16.66
2018-04-16T00:38:33.847Z,16.66
2018-04-16T00:41:09.584Z,16.63
2018-04-16T00:43:43.600Z,16.56
2018-04-16T00:46:18.325Z,16.51
2018-04-16T00:48:52.889Z,16.49
2018-04-16T00:51:26.666Z,16.44
2018-04-16T00:54:18.280Z,16.44
2018-04-16T00:56:53.111Z,16.48
2018-04-16T00:59:27.865Z,16.47
2018-04-16T01:02:01.791Z,16.41
2018-04-16T01:04:35.790Z,16.39
2018-04-16T01:07:09.691Z,16.30
2018-04-16T01:09:43.450Z,16.12
2018-04-16T01:12:17.757Z,16.03
2018-04-16T01:14:51.719Z,15.96
2018-04-16T01:17:25.888Z,15.99
2018-04-16T01:19:59.965Z,16.07
2018-04-16T01:22:33.700Z,16.16
2018-04-16T01:25:07.449Z,16.06
2018-04-16T01:27:41.396Z,15.97
2018-04-16T01:30:15.421Z,15.93
2018-04-16T01:32:49.210Z,15.94
2018-04-16T01:35:22.955Z,15.95
2018-04-16T01:37:56.825Z,15.96
2018-04-16T01:40:30.490Z,15.99
2018-04-16T01:43:05.417Z,16.03
2018-04-16T01:45:39.928Z,15.99
2018-04-16T01:48:14.458Z,15.99
2018-04-16T01:50:48.950Z,15.98
2018-04-16T01:53:23.633Z,15.99
2018-04-16T01:55:57.460Z,15.96
2018-04-16T01:58:31.230Z,15.90
2018-04-16T02:01:05.046Z,15.94
2018-04-16T02:03:38.830Z,15.92
2018-04-16T02:06:14.766Z,15.94
2018-04-16T02:08:48.922Z,15.77
2018-04-16T02:11:22.927Z,15.60
2018-04-16T02:13:56.924Z,15.67
2018-04-16T02:16:31.007Z,15.71
2018-04-16T02:19:04.788Z,15.74
2018-04-16T02:21:38.724Z,15.73
2018-04-16T02:24:13.394Z,15.68
2018-04-16T02:26:47.336Z,15.71
2018-04-16T02:29:21.278Z,15.72
2018-04-16T02:31:55.941Z,15.78
2018-04-16T02:34:29.691Z,15.78
2018-04-16T02:37:04.439Z,15.61
2018-04-16T02:39:39.190Z,15.47
2018-04-16T02:42:12.975Z,15.41
2018-04-16T02:44:47.491Z,15.30
2018-04-16T02:47:21.434Z,15.36
2018-04-16T02:49:55.361Z,15.37
2018-04-16T02:52:29.127Z,15.41
2018-04-16T02:55:03.783Z,15.53
2018-04-16T03:00:45.139Z,15.49
2018-04-16T03:03:19.714Z,15.52
2018-04-16T03:05:53.766Z,15.48
2018-04-16T03:08:27.531Z,15.48
2018-04-16T03:11:01.302Z,15.44
2018-04-16T03:13:35.293Z,15.45
2018-04-16T03:16:09.753Z,15.43
2018-04-16T03:18:43.472Z,15.42
2018-04-16T03:21:17.521Z,15.44
2018-04-16T03:23:52.281Z,15.35
2018-04-16T03:29:27.823Z,15.31
2018-04-16T03:32:02.634Z,15.28
2018-04-16T03:34:36.399Z,15.22
2018-04-16T03:37:10.272Z,15.27
2018-04-16T03:39:44.894Z,15.30
2018-04-16T03:42:19.809Z,15.27
2018-04-16T03:44:53.523Z,15.32
2018-04-16T03:47:28.222Z,15.36
2018-04-16T03:50:02.215Z,15.33
2018-04-16T03:52:35.993Z,15.15
2018-04-16T03:55:04.424Z,15.11
2018-04-16T03:57:32.718Z,15.13
2018-04-16T04:00:01.801Z,15.12
2018-04-16T04:02:30.294Z,15.14
2018-04-16T04:04:58.597Z,15.18
2018-04-16T04:07:26.951Z,15.18
2018-04-16T04:09:56.113Z,15.16
2018-04-16T04:12:24.567Z,15.18
2018-04-16T04:14:52.932Z,15.17
2018-04-16T04:17:21.581Z,15.18
2018-04-16T04:19:49.969Z,15.16
2018-04-16T04:22:18.232Z,15.16
2018-04-16T04:25:04.352Z,15.18
2018-04-16T04:30:45.801Z,15.06
2018-04-16T04:33:14.282Z,15.06
2018-04-16T04:35:42.705Z,15.09
2018-04-16T04:38:11.856Z,15.07
2018-04-16T04:40:40.260Z,14.94
2018-04-16T04:43:08.713Z,14.87
2018-04-16T04:45:37.049Z,14.90
2018-04-16T04:48:06.149Z,14.79
2018-04-16T04:50:35.222Z,14.72
2018-04-16T04:53:03.551Z,14.65
2018-04-16T04:55:31.936Z,14.73
2018-04-16T04:58:00.696Z,14.75
2018-04-16T05:00:29.102Z,14.78
2018-04-16T05:02:58.592Z,14.85
2018-04-16T05:05:28.536Z,14.87
2018-04-16T05:07:58.452Z,14.90
2018-04-16T05:10:28.773Z,14.93
2018-04-16T05:12:57.070Z,14.94
2018-04-16T05:15:25.463Z,14.99
2018-04-16T05:17:54.544Z,15.08
2018-04-16T05:20:23.039Z,15.12
2018-04-16T05:22:51.372Z,15.18
2018-04-16T05:25:19.687Z,15.21
2018-04-16T05:27:48.154Z,15.10
2018-04-16T05:30:16.616Z,15.09
2018-04-16T05:32:44.972Z,15.15
2018-04-16T05:35:13.267Z,15.23
2018-04-16T05:37:41.663Z,15.27
2018-04-16T05:40:10.452Z,15.43
2018-04-16T05:42:39.828Z,15.55
2018-04-16T05:45:08.227Z,15.65
2018-04-16T05:47:36.504Z,15.78
2018-04-16T05:50:04.778Z,15.74
2018-04-16T05:52:33.102Z,15.72
2018-04-16T05:55:02.207Z,15.62
2018-04-16T05:57:31.973Z,15.53
2018-04-16T06:00:00.439Z,15.66
2018-04-16T06:02:28.846Z,15.66
2018-04-16T06:04:57.167Z,15.66
2018-04-16T06:07:25.446Z,15.66
2018-04-16T06:09:53.818Z,15.69
2018-04-16T06:12:22.139Z,15.63
2018-04-16T06:14:50.447Z,15.61
2018-04-16T06:17:19.788Z,15.63
2018-04-16T06:19:48.052Z,15.69
2018-04-16T06:22:16.719Z,15.69
2018-04-16T06:24:45.224Z,15.79
2018-04-16T06:27:13.579Z,15.77
2018-04-16T06:29:42.653Z,15.84
2018-04-16T06:32:10.959Z,15.90
2018-04-16T06:34:39.352Z,16.00
2018-04-16T06:37:07.703Z,16.10
2018-04-16T06:39:36.908Z,16.15
2018-04-16T06:42:05.399Z,16.20
2018-04-16T06:44:33.975Z,16.31
2018-04-16T06:47:02.264Z,16.34
2018-04-16T06:49:30.687Z,16.47
2018-04-16T06:51:59.196Z,16.51
2018-04-16T06:54:28.256Z,16.58
2018-04-16T06:56:56.602Z,16.56
2018-04-16T06:59:26.236Z,16.73
2018-04-16T07:01:54.606Z,16.68
2018-04-16T07:04:22.965Z,16.74
2018-04-16T07:06:51.277Z,16.69
2018-04-16T07:09:19.630Z,16.74
2018-04-16T07:11:48.020Z,16.70
2018-04-16T07:14:16.670Z,16.71
2018-04-16T07:16:45.140Z,16.77
2018-04-16T07:19:13.504Z,16.72
2018-04-16T07:21:42.550Z,16.51
2018-04-16T07:24:11.543Z,16.23
2018-04-16T07:26:39.945Z,16.28
2018-04-16T07:29:08.455Z,16.49
2018-04-16T07:31:36.983Z,16.73
2018-04-16T07:34:05.423Z,16.79
2018-04-16T07:36:33.730Z,16.64
2018-04-16T07:39:02.065Z,16.74
2018-04-16T07:41:30.344Z,16.70
2018-04-16T07:43:59.415Z,16.84
2018-04-16T07:46:27.847Z,16.82
2018-04-16T07:48:56.193Z,16.75
2018-04-16T07:51:25.371Z,16.75
2018-04-16T07:53:54.580Z,17.02
2018-04-16T07:56:22.851Z,17.02
2018-04-16T07:58:51.235Z,17.09
2018-04-16T08:01:21.503Z,17.25
2018-04-16T08:03:49.812Z,17.38
2018-04-16T08:06:18.141Z,17.45
2018-04-16T08:08:46.502Z,17.56
2018-04-16T08:11:15.700Z,17.46
2018-04-16T08:13:44.877Z,17.59
2018-04-16T08:16:13.311Z,17.72
2018-04-16T08:18:42.781Z,17.92
2018-04-16T08:21:11.872Z,18.05
2018-04-16T08:23:41.143Z,18.02
2018-04-16T08:26:09.475Z,18.11
2018-04-16T08:28:37.787Z,18.30
2018-04-16T08:31:06.113Z,18.47
2018-04-16T08:33:35.351Z,18.47
2018-04-16T08:36:05.009Z,18.12
2018-04-16T08:38:34.211Z,17.97
2018-04-16T08:41:03.647Z,17.98
2018-04-16T08:43:32.035Z,18.02
2018-04-16T08:46:00.373Z,18.20
2018-04-16T08:48:29.488Z,18.24
2018-04-16T08:50:57.807Z,17.88
2018-04-16T08:53:26.127Z,17.86
2018-04-16T08:55:55.224Z,18.10
2018-04-16T08:58:23.538Z,18.42
2018-04-16T09:00:52.008Z,18.56
2018-04-16T09:03:20.526Z,18.46
2018-04-16T09:05:48.987Z,18.49
2018-04-16T09:08:18.929Z,18.27
2018-04-16T09:10:47.273Z,18.31
2018-04-16T09:13:15.726Z,18.42
2018-04-16T09:15:44.053Z,18.45
2018-04-16T09:18:12.364Z,18.32
2018-04-16T09:20:41.677Z,17.75
2018-04-16T09:23:10.078Z,17.86
2018-04-16T09:25:38.428Z,17.98
2018-04-16T09:28:07.684Z,18.15
2018-04-16T09:30:36.011Z,18.00
2018-04-16T09:33:04.449Z,17.70
2018-04-16T09:35:32.888Z,17.78
2018-04-16T09:38:01.305Z,17.89
2018-04-16T09:40:29.638Z,18.07
2018-04-16T09:42:57.952Z,18.16
2018-04-16T09:45:26.253Z,18.06
2018-04-16T09:47:54.865Z,18.19
2018-04-16T09:50:23.342Z,18.35
2018-04-16T09:52:51.629Z,18.04
2018-04-16T09:55:19.983Z,18.37
2018-04-16T09:57:49.079Z,18.65
2018-04-16T10:00:18.331Z,18.75
2018-04-16T10:03:05.348Z,18.94
2018-04-16T10:05:33.730Z,18.77
2018-04-16T10:08:02.168Z,18.93
2018-04-16T10:10:30.680Z,18.73
2018-04-16T10:12:59.139Z,18.64
2018-04-16T10:15:27.604Z,18.73
2018-04-16T10:17:55.917Z,18.53
2018-04-16T10:20:24.244Z,18.61
2018-04-16T10:22:53.371Z,18.81
2018-04-16T10:25:21.693Z,18.91
2018-04-16T10:27:50.799Z,19.01
2018-04-16T10:30:19.300Z,18.97
2018-04-16T10:32:48.353Z,18.91
2018-04-16T10:35:16.729Z,19.03
2018-04-16T10:37:45.416Z,19.20
2018-04-16T10:40:14.376Z,19.47
2018-04-16T10:42:42.719Z,19.54
2018-04-16T10:45:11.110Z,19.63
2018-04-16T10:47:40.373Z,19.73
2018-04-16T10:50:08.697Z,19.69
2018-04-16T10:52:37.009Z,19.72
2018-04-16T10:55:05.365Z,19.50
2018-04-16T10:57:33.817Z,19.03
2018-04-16T11:02:38.189Z,19.44
2018-04-16T11:05:06.553Z,19.41
2018-04-16T11:07:36.128Z,19.51
2018-04-16T11:10:05.348Z,19.59
2018-04-16T11:12:33.699Z,19.79
2018-04-16T11:15:02.796Z,19.84
2018-04-16T11:17:31.190Z,19.51
2018-04-16T11:19:59.490Z,19.22
2018-04-16T11:22:27.874Z,19.14
2018-04-16T11:24:56.171Z,19.00
2018-04-16T11:27:24.606Z,18.90
2018-04-16T11:29:53.154Z,18.89
2018-04-16T11:32:21.471Z,18.85
2018-04-16T11:34:49.878Z,18.85
2018-04-16T11:37:18.324Z,18.98
2018-04-16T11:39:47.463Z,19.21
2018-04-16T11:42:15.765Z,19.56
2018-04-16T11:44:44.079Z,19.35
2018-04-16T11:47:13.275Z,19.26
2018-04-16T11:49:41.745Z,19.55
2018-04-16T11:52:10.980Z,19.77
2018-04-16T11:54:39.302Z,19.87
2018-04-16T11:57:07.671Z,19.81
2018-04-16T11:59:36.014Z,19.69
2018-04-16T12:02:04.309Z,19.93
2018-04-16T12:04:32.670Z,19.36
2018-04-16T12:07:00.995Z,19.33
2018-04-16T12:09:29.334Z,19.11
2018-04-16T12:11:57.720Z,19.24
2018-04-16T12:14:26.206Z,19.36
2018-04-16T12:16:54.714Z,19.48
2018-04-16T12:19:23.945Z,19.62
2018-04-16T12:21:52.265Z,19.22
2018-04-16T12:24:20.696Z,19.28
2018-04-16T12:26:49.099Z,19.61
2018-04-16T12:29:17.636Z,19.95
2018-04-16T12:31:46.799Z,20.38
2018-04-16T12:34:15.285Z,20.52
2018-04-16T12:36:43.622Z,20.10
2018-04-16T12:39:13.653Z,20.11
2018-04-16T12:41:42.049Z,19.85
2018-04-16T12:44:10.566Z,19.82
2018-04-16T12:46:39.654Z,19.95
2018-04-16T12:49:08.071Z,20.15
2018-04-16T12:51:36.406Z,20.11
2018-04-16T12:54:05.031Z,20.05
2018-04-16T12:56:33.511Z,19.94
2018-04-16T12:59:01.890Z,20.07
2018-04-16T13:01:30.257Z,20.20
2018-04-16T13:03:58.550Z,20.48
2018-04-16T13:06:27.321Z,20.81
2018-04-16T13:08:55.816Z,20.86
2018-04-16T13:11:24.151Z,21.18
2018-04-16T13:13:52.460Z,21.52
2018-04-16T13:16:20.797Z,21.68
2018-04-16T13:18:49.291Z,21.89
2018-04-16T13:21:17.785Z,21.75
2018-04-16T13:23:47.355Z,21.13
2018-04-16T13:26:15.889Z,21.20
2018-04-16T13:28:44.378Z,20.68
2018-04-16T13:31:12.712Z,20.90
2018-04-16T13:33:41.895Z,20.66
2018-04-16T13:36:11.148Z,20.69
2018-04-16T13:38:39.507Z,20.83
2018-04-16T13:41:07.832Z,20.79
2018-04-16T13:43:36.184Z,20.91
2018-04-16T13:46:04.631Z,21.05
2018-04-16T13:48:33.014Z,21.13
2018-04-16T13:51:02.180Z,21.11
2018-04-16T13:53:30.590Z,21.05
2018-04-16T13:55:59.694Z,21.09
2018-04-16T13:58:28.804Z,21.00
2018-04-16T14:00:57.121Z,20.52
2018-04-16T14:03:25.455Z,20.73
2018-04-16T14:05:53.889Z,21.17
2018-04-16T14:08:22.380Z,21.18
2018-04-16T14:10:50.735Z,20.99
2018-04-16T14:13:19.092Z,21.26
2018-04-16T14:15:47.598Z,21.66
2018-04-16T14:18:15.975Z,21.81
2018-04-16T14:20:44.384Z,21.34
2018-04-16T14:23:12.809Z,21.45
2018-04-16T14:25:41.172Z,21.38
2018-04-16T14:28:09.566Z,21.02
2018-04-16T14:30:37.906Z,20.63
2018-04-16T14:33:06.989Z,20.47
2018-04-16T14:35:35.440Z,20.13
2018-04-16T14:38:03.804Z,20.02
2018-04-16T14:40:32.424Z,20.07
2018-04-16T14:43:01.971Z,20.05
2018-04-16T14:45:30.469Z,19.70
2018-04-16T14:47:58.998Z,19.73
2018-04-16T14:50:27.368Z,19.41
2018-04-16T14:52:55.690Z,19.61
2018-04-16T14:55:24.094Z,19.95
2018-04-16T14:57:52.578Z,20.22
2018-04-16T15:00:21.359Z,20.54
2018-04-16T15:02:49.645Z,20.92
2018-04-16T15:05:18.011Z,20.90
2018-04-16T15:07:46.371Z,20.67
2018-04-16T15:10:14.838Z,20.63
2018-04-16T15:12:43.277Z,20.36
2018-04-16T15:15:11.690Z,20.49
2018-04-16T15:17:40.236Z,20.69
2018-04-16T15:20:08.605Z,21.04
2018-04-16T15:22:37.126Z,21.22
2018-04-16T15:25:05.546Z,21.50
2018-04-16T15:27:33.908Z,22.45
2018-04-16T15:30:02.356Z,23.54
2018-04-16T15:32:30.792Z,23.03
2018-04-16T15:34:59.174Z,24.19
2018-04-16T15:37:27.493Z,24.40
2018-04-16T15:39:56.030Z,23.89
2018-04-16T15:42:24.354Z,22.83
2018-04-16T15:44:52.782Z,21.61
2018-04-16T15:47:21.129Z,21.17
2018-04-16T15:49:49.795Z,20.81
2018-04-16T15:52:18.265Z,20.73
2018-04-16T15:54:46.630Z,21.17
2018-04-16T15:57:15.033Z,22.63
2018-04-16T15:59:43.325Z,23.87
2018-04-16T16:02:12.521Z,25.51
2018-04-16T16:04:41.634Z,27.17
2018-04-16T16:07:11.129Z,26.11
2018-04-16T16:09:40.239Z,24.38
2018-04-16T16:12:08.684Z,23.27
2018-04-16T16:14:37.864Z,22.22
2018-04-16T16:17:06.231Z,21.43
2018-04-16T16:19:34.575Z,20.80
2018-04-16T16:22:03.077Z,20.51
2018-04-16T16:24:31.568Z,21.39
2018-04-16T16:26:59.849Z,23.52
2018-04-16T16:29:28.500Z,24.89
2018-04-16T16:31:57.113Z,25.74
2018-04-16T16:34:25.702Z,26.40
2018-04-16T16:36:54.053Z,26.63
2018-04-16T16:39:22.547Z,26.45
2018-04-16T16:41:51.176Z,27.51
2018-04-16T16:44:20.457Z,28.02
2018-04-16T16:46:48.804Z,27.43
2018-04-16T16:49:17.095Z,27.22
2018-04-16T16:51:45.584Z,27.29
2018-04-16T16:54:14.640Z,26.19
2018-04-16T16:56:43.687Z,25.05
2018-04-16T16:59:12.114Z,24.27
2018-04-16T17:01:40.479Z,23.56
2018-04-16T17:04:09.024Z,23.05
2018-04-16T17:06:37.432Z,22.57
2018-04-16T17:09:07.757Z,22.27
2018-04-16T17:11:37.235Z,21.86
2018-04-16T17:14:06.263Z,21.47
2018-04-16T17:16:34.788Z,21.07
2018-04-16T17:19:03.924Z,20.96
2018-04-16T17:21:33.294Z,20.94
2018-04-16T17:24:02.443Z,20.81
2018-04-16T17:26:30.814Z,20.70
2018-04-16T17:29:00.074Z,20.67
2018-04-16T17:31:28.717Z,20.75
2018-04-16T17:33:57.119Z,20.66
2018-04-16T17:36:26.310Z,20.53
2018-04-16T17:38:54.853Z,20.54
2018-04-16T17:41:23.256Z,20.81
2018-04-16T17:43:51.760Z,20.87
2018-04-16T17:46:20.197Z,20.76
2018-04-16T17:48:48.566Z,20.76
2018-04-16T17:51:17.732Z,20.80
2018-04-16T17:53:46.276Z,20.66
2018-04-16T17:56:14.861Z,20.61
2018-04-16T17:58:43.364Z,20.57
2018-04-16T18:01:11.842Z,20.56
2018-04-16T18:03:40.299Z,20.57
2018-04-16T18:06:08.946Z,20.24
2018-04-16T18:08:38.092Z,20.15
2018-04-16T18:11:06.589Z,20.24
2018-04-16T18:13:35.148Z,20.37
2018-04-16T18:16:04.835Z,20.52
2018-04-16T18:18:33.356Z,20.41
2018-04-16T18:21:01.726Z,20.38
2018-04-16T18:23:30.411Z,20.34
2018-04-16T18:25:59.099Z,20.40
2018-04-16T18:28:27.497Z,20.39
2018-04-16T18:30:55.958Z,20.35
2018-04-16T18:33:24.408Z,20.32
2018-04-16T18:35:52.795Z,20.33
2018-04-16T18:38:21.211Z,20.30
2018-04-16T18:40:49.674Z,20.26
2018-04-16T18:43:18.077Z,20.05
2018-04-16T18:45:46.571Z,19.90
2018-04-16T18:48:15.047Z,19.77
2018-04-16T18:50:43.534Z,19.61
2018-04-16T18:53:11.898Z,19.40
2018-04-16T18:55:40.238Z,19.35
2018-04-16T18:58:08.762Z,19.35
2018-04-16T19:00:37.130Z,19.28
2018-04-16T19:03:05.681Z,19.23
2018-04-16T19:05:34.036Z,19.11
2018-04-16T19:08:03.124Z,19.01
2018-04-16T19:10:32.363Z,18.94
2018-04-16T19:13:00.820Z,18.85
2018-04-16T19:15:30.117Z,18.70
2018-04-16T19:17:58.532Z,18.63
2018-04-16T19:20:33.480Z,18.48
2018-04-16T19:23:01.987Z,18.37
2018-04-16T19:25:31.186Z,18.37
2018-04-16T19:28:05.949Z,18.43
2018-04-16T19:30:34.857Z,18.44
2018-04-16T19:33:08.694Z,18.47
2018-04-16T19:35:37.173Z,18.46
2018-04-16T19:38:05.606Z,18.48
2018-04-16T19:40:35.065Z,18.46
2018-04-16T19:43:06.212Z,18.44
2018-04-16T19:45:36.225Z,18.33
2018-04-16T19:48:05.435Z,17.99
2018-04-16T19:50:35.831Z,17.67
2018-04-16T19:53:05.392Z,17.55
2018-04-16T19:55:39.419Z,17.56
2018-04-16T19:58:13.402Z,17.53
2018-04-16T20:00:42.729Z,17.56
2018-04-16T20:03:16.677Z,17.63
2018-04-16T20:05:45.199Z,17.66
2018-04-16T20:08:14.369Z,17.67
2018-04-16T20:10:42.914Z,17.63
2018-04-16T20:13:11.310Z,17.63
2018-04-16T20:15:39.675Z,17.63
2018-04-16T20:18:08.243Z,17.63
2018-04-16T20:20:36.683Z,17.63
2018-04-16T20:23:06.970Z,17.60
2018-04-16T20:25:36.341Z,17.54
2018-04-16T20:28:04.774Z,17.35
2018-04-16T20:30:33.950Z,17.46
2018-04-16T20:33:02.500Z,17.08
2018-04-16T20:35:30.887Z,16.63
2018-04-16T20:37:59.601Z,16.31
2018-04-16T20:40:28.034Z,16.29
2018-04-16T20:42:56.605Z,16.32
2018-04-16T20:45:25.766Z,16.41
2018-04-16T20:47:54.170Z,16.45
2018-04-16T20:50:23.386Z,16.54
2018-04-16T20:52:51.755Z,16.63
2018-04-16T20:55:20.986Z,16.64
2018-04-16T20:57:49.302Z,16.71
2018-04-16T21:00:17.616Z,16.76
2018-04-16T21:02:46.105Z,16.82
2018-04-16T21:05:14.690Z,16.82
2018-04-16T21:07:43.087Z,16.77
2018-04-16T21:10:11.456Z,16.78
2018-04-16T21:12:39.869Z,16.75
2018-04-16T21:15:08.191Z,16.74
2018-04-16T21:17:37.277Z,16.66
2018-04-16T21:20:06.444Z,16.53
2018-04-16T21:22:34.791Z,16.31
2018-04-16T21:25:03.378Z,16.09
2018-04-16T21:27:31.723Z,15.83
2018-04-16T21:30:01.016Z,15.90
2018-04-16T21:32:30.339Z,16.01
2018-04-16T21:34:58.707Z,16.08
2018-04-16T21:37:26.994Z,16.07
2018-04-16T21:39:55.303Z,16.11
2018-04-16T21:42:23.761Z,16.19
2018-04-16T21:44:52.123Z,16.23
2018-04-16T21:47:20.740Z,16.24
2018-04-16T21:49:49.045Z,16.20
2018-04-16T21:52:17.447Z,16.21
2018-04-16T21:54:46.635Z,16.19
2018-04-16T21:57:15.709Z,16.09
2018-04-16T21:59:44.041Z,15.92
2018-04-16T22:02:12.397Z,15.78
2018-04-16T22:04:42.632Z,15.72
2018-04-16T22:07:10.935Z,15.61
2018-04-16T22:09:39.312Z,15.69
2018-04-16T22:12:07.620Z,15.76
2018-04-16T22:14:35.925Z,15.80
2018-04-16T22:17:04.595Z,15.75
2018-04-16T22:19:32.942Z,15.80
2018-04-16T22:22:01.348Z,15.87
2018-04-16T22:24:29.691Z,15.81
2018-04-16T22:26:58.005Z,15.77
2018-04-16T22:29:26.432Z,15.72
2018-04-16T22:31:54.895Z,15.61
2018-04-16T22:34:25.158Z,15.38
2018-04-16T22:36:53.452Z,15.28
2018-04-16T22:39:21.917Z,15.31
2018-04-16T22:41:50.477Z,15.22
2018-04-16T22:44:18.807Z,15.24
2018-04-16T22:46:48.030Z,15.29
2018-04-16T22:49:16.401Z,15.38
2018-04-16T22:51:45.855Z,15.42
2018-04-16T22:54:14.184Z,15.40
2018-04-16T22:56:43.360Z,15.40
2018-04-16T22:59:11.848Z,15.21
2018-04-16T23:01:40.378Z,15.19
2018-04-16T23:04:08.721Z,15.21
2018-04-16T23:06:37.957Z,15.23
2018-04-16T23:09:07.456Z,15.21
2018-04-16T23:11:35.739Z,15.23
2018-04-16T23:14:04.158Z,15.27
2018-04-16T23:16:33.288Z,15.19
2018-04-16T23:19:01.615Z,14.92
2018-04-16T23:21:29.944Z,14.57
2018-04-16T23:23:58.419Z,14.55
2018-04-16T23:26:26.714Z,14.67
2018-04-16T23:28:55.094Z,14.76
2018-04-16T23:31:23.494Z,14.82
2018-04-16T23:33:51.902Z,14.93
2018-04-16T23:36:20.270Z,14.95
2018-04-16T23:38:49.506Z,14.89
2018-04-16T23:41:17.856Z,14.80
2018-04-16T23:43:46.157Z,14.74
2018-04-16T23:46:14.628Z,14.78
2018-04-16T23:48:43.816Z,14.80
2018-04-16T23:51:13.125Z,14.81
2018-04-16T23:53:42.235Z,14.79
2018-04-16T23:56:11.285Z,14.74
2018-04-16T23:58:39.709Z,14.77
